Lookout Hill, Australia
Current Conditions -  °F | °C
As of 9:30 AM on Saturday 20 Dec 2014 (Local Time) from YMAV Reporting Station
Overcast Overcast  
Wind Chill: 63°   Ceiling: 2900
Heat Index: 63°   Visibility: 6mi
Dew Point: 50°   Wind: 10mph
Humidity: 63%   Direction: 250°WSW
Pressure: 30.09"   Gusts: NA
Location:  37.28°S, 143.25°E
Report Text: YMAV 192230Z AUTO 25009KT 9999 // OVC029 17/10 Q1019
Loading
Personal Weather Stations






























Interactive Weather Map New forecast layout! Learn more

10-Day Weather Forecast

Advertisements
Track Severe Weather on mobile